KLNR/LNR METAR and TAF weather

Enter ICAO airport designator
Station Type Date Time Source
KLNR METAR 2020/08/10 18:27 UTC NOAA

KLNR 101827Z AUTO 34003KT 10SM VCTS FEW016 FEW025 SCT037 26/23 A2984 RMK AO2 LTG DSNT SE-SW T02560233


Station Type Date Time Source
KLNR Decoded METAR 2020/08/10 18:27 UTC NOAA

LONE ROCK TRI-COUNTY REG, WI, United States (KLNR) 43-13N 090-11W 217M
Aug 10, 2020 - 02:27 PM EDT / 2020.08.10 1827 UTC
Wind: from the NNW (340 degrees) at 3 MPH (3 KT):0
Visibility: 10 mile(s):0
Sky conditions: partly cloudy
Weather: thunder in the vicinity; Lightning observed
Temperature: 78.1 F (25.6 C)
Dew Point: 73.9 F (23.3 C)
Relative Humidity: 87%
Pressure (altimeter): 29.84 in. Hg (1010 hPa)
ob: KLNR 101827Z AUTO 34003KT 10SM VCTS FEW016 FEW025 SCT037 26/23 A2984 RMK AO2 LTG DSNT SE-SW T02560233
cycle: 18

Station Type Date Time Source
KLNR TAF UTC NOAA

Error!

Example: see airport list